sensor_id;sensor_type;location;lat;lon;timestamp;pressure;altitude;pressure_sealevel;temperature
40245;BMP280;25963;42.694;23.600;2024-03-22T00:01:45;95220.25;;;1.61
40245;BMP280;25963;42.694;23.600;2024-03-22T00:04:11;95284.69;;;2.05
40245;BMP280;25963;42.694;23.600;2024-03-22T00:06:37;95248.25;;;1.71
40245;BMP280;25963;42.694;23.600;2024-03-22T00:09:02;95291.88;;;2.04
40245;BMP280;25963;42.694;23.600;2024-03-22T00:11:28;95284.38;;;2.03
40245;BMP280;25963;42.694;23.600;2024-03-22T00:13:53;95234.66;;;1.72
40245;BMP280;25963;42.694;23.600;2024-03-22T00:16:19;95279.97;;;1.96
40245;BMP280;25963;42.694;23.600;2024-03-22T00:18:44;95261.50;;;1.83
40245;BMP280;25963;42.694;23.600;2024-03-22T00:21:10;95276.69;;;1.92
40245;BMP280;25963;42.694;23.600;2024-03-22T00:23:35;95260.50;;;1.77
40245;BMP280;25963;42.694;23.600;2024-03-22T00:26:03;95247.50;;;1.70
40245;BMP280;25963;42.694;23.600;2024-03-22T00:28:28;95254.22;;;1.71
40245;BMP280;25963;42.694;23.600;2024-03-22T00:30:54;95269.94;;;1.75
40245;BMP280;25963;42.694;23.600;2024-03-22T00:33:19;95244.72;;;1.58
40245;BMP280;25963;42.694;23.600;2024-03-22T00:35:45;95272.25;;;1.73
40245;BMP280;25963;42.694;23.600;2024-03-22T00:38:10;95267.31;;;1.75
40245;BMP280;25963;42.694;23.600;2024-03-22T00:40:35;95256.53;;;1.69
40245;BMP280;25963;42.694;23.600;2024-03-22T00:43:01;95282.59;;;1.80
40245;BMP280;25963;42.694;23.600;2024-03-22T00:45:26;95243.84;;;1.64
40245;BMP280;25963;42.694;23.600;2024-03-22T00:47:51;95226.88;;;1.49
40245;BMP280;25963;42.694;23.600;2024-03-22T00:50:17;95274.22;;;1.85
40245;BMP280;25963;42.694;23.600;2024-03-22T00:52:42;95252.97;;;1.60
40245;BMP280;25963;42.694;23.600;2024-03-22T00:55:08;95289.72;;;1.63
40245;BMP280;25963;42.694;23.600;2024-03-22T00:57:33;95222.53;;;1.23
40245;BMP280;25963;42.694;23.600;2024-03-22T00:59:59;95224.38;;;1.26
40245;BMP280;25963;42.694;23.600;2024-03-22T01:02:24;95215.78;;;1.22
40245;BMP280;25963;42.694;23.600;2024-03-22T01:04:50;95225.81;;;1.27
40245;BMP280;25963;42.694;23.600;2024-03-22T01:07:15;95273.47;;;1.68
40245;BMP280;25963;42.694;23.600;2024-03-22T01:09:41;95264.47;;;1.66
40245;BMP280;25963;42.694;23.600;2024-03-22T01:12:07;95161.56;;;0.92
40245;BMP280;25963;42.694;23.600;2024-03-22T01:14:32;95266.72;;;1.67
40245;BMP280;25963;42.694;23.600;2024-03-22T01:16:57;95266.03;;;1.63
40245;BMP280;25963;42.694;23.600;2024-03-22T01:19:23;95265.19;;;1.50
40245;BMP280;25963;42.694;23.600;2024-03-22T01:21:49;95248.03;;;1.26
40245;BMP280;25963;42.694;23.600;2024-03-22T01:24:14;95189.16;;;0.81
40245;BMP280;25963;42.694;23.600;2024-03-22T01:26:40;95279.66;;;1.39
40245;BMP280;25963;42.694;23.600;2024-03-22T01:29:05;95260.69;;;1.31
40245;BMP280;25963;42.694;23.600;2024-03-22T01:31:30;95273.16;;;1.27
40245;BMP280;25963;42.694;23.600;2024-03-22T01:33:56;95295.19;;;1.33
40245;BMP280;25963;42.694;23.600;2024-03-22T01:36:21;95259.28;;;1.07
40245;BMP280;25963;42.694;23.600;2024-03-22T01:38:47;95297.28;;;1.22
40245;BMP280;25963;42.694;23.600;2024-03-22T01:41:12;95277.69;;;1.27
40245;BMP280;25963;42.694;23.600;2024-03-22T01:43:38;95266.63;;;1.15
40245;BMP280;25963;42.694;23.600;2024-03-22T01:46:04;95251.06;;;1.05
40245;BMP280;25963;42.694;23.600;2024-03-22T01:48:30;95281.94;;;1.20
40245;BMP280;25963;42.694;23.600;2024-03-22T01:50:56;95225.84;;;0.88
40245;BMP280;25963;42.694;23.600;2024-03-22T01:53:23;95271.78;;;1.19
40245;BMP280;25963;42.694;23.600;2024-03-22T01:55:48;95287.50;;;1.23
40245;BMP280;25963;42.694;23.600;2024-03-22T01:58:14;95287.50;;;1.23
40245;BMP280;25963;42.694;23.600;2024-03-22T02:00:39;95287.41;;;1.30
40245;BMP280;25963;42.694;23.600;2024-03-22T02:03:04;95285.91;;;1.29
40245;BMP280;25963;42.694;23.600;2024-03-22T02:05:30;95291.63;;;1.24
40245;BMP280;25963;42.694;23.600;2024-03-22T02:07:55;95256.41;;;0.98
40245;BMP280;25963;42.694;23.600;2024-03-22T02:10:21;95230.91;;;0.75
40245;BMP280;25963;42.694;23.600;2024-03-22T02:12:46;95265.72;;;1.02
40245;BMP280;25963;42.694;23.600;2024-03-22T02:15:12;95296.00;;;1.10
40245;BMP280;25963;42.694;23.600;2024-03-22T02:17:37;95297.00;;;1.16
40245;BMP280;25963;42.694;23.600;2024-03-22T02:20:03;95248.41;;;0.85
40245;BMP280;25963;42.694;23.600;2024-03-22T02:22:30;95233.34;;;0.66
40245;BMP280;25963;42.694;23.600;2024-03-22T02:24:55;95269.84;;;0.80
40245;BMP280;25963;42.694;23.600;2024-03-22T02:27:21;95291.00;;;0.96
40245;BMP280;25963;42.694;23.600;2024-03-22T02:29:46;95295.28;;;0.87
40245;BMP280;25963;42.694;23.600;2024-03-22T02:32:12;95273.13;;;0.65
40245;BMP280;25963;42.694;23.600;2024-03-22T02:34:37;95269.25;;;0.49
40245;BMP280;25963;42.694;23.600;2024-03-22T02:37:03;95293.66;;;0.70
40245;BMP280;25963;42.694;23.600;2024-03-22T02:39:29;95306.00;;;0.73
40245;BMP280;25963;42.694;23.600;2024-03-22T02:41:55;95316.69;;;0.62
40245;BMP280;25963;42.694;23.600;2024-03-22T02:44:20;95304.09;;;0.50
40245;BMP280;25963;42.694;23.600;2024-03-22T02:46:46;95291.66;;;0.31
40245;BMP280;25963;42.694;23.600;2024-03-22T02:49:11;95323.50;;;0.33
40245;BMP280;25963;42.694;23.600;2024-03-22T02:51:36;95321.84;;;0.42
40245;BMP280;25963;42.694;23.600;2024-03-22T02:54:02;95321.09;;;0.42
40245;BMP280;25963;42.694;23.600;2024-03-22T02:56:27;95328.19;;;0.45
40245;BMP280;25963;42.694;23.600;2024-03-22T02:58:53;95333.91;;;0.40
40245;BMP280;25963;42.694;23.600;2024-03-22T03:01:18;95330.13;;;0.41
40245;BMP280;25963;42.694;23.600;2024-03-22T03:03:44;95320.13;;;0.32
40245;BMP280;25963;42.694;23.600;2024-03-22T03:06:09;95305.06;;;0.36
40245;BMP280;25963;42.694;23.600;2024-03-22T03:08:35;95338.19;;;0.53
40245;BMP280;25963;42.694;23.600;2024-03-22T03:11:00;95347.94;;;0.53
40245;BMP280;25963;42.694;23.600;2024-03-22T03:13:26;95313.09;;;0.29
40245;BMP280;25963;42.694;23.600;2024-03-22T03:15:51;95337.22;;;0.44
40245;BMP280;25963;42.694;23.600;2024-03-22T03:18:16;95342.41;;;0.47
40245;BMP280;25963;42.694;23.600;2024-03-22T03:20:42;95347.72;;;0.44
40245;BMP280;25963;42.694;23.600;2024-03-22T03:23:08;95306.94;;;0.13
40245;BMP280;25963;42.694;23.600;2024-03-22T03:25:33;95282.03;;;-0.03
40245;BMP280;25963;42.694;23.600;2024-03-22T03:27:59;95342.53;;;0.40
40245;BMP280;25963;42.694;23.600;2024-03-22T03:30:24;95317.84;;;0.34
40245;BMP280;25963;42.694;23.600;2024-03-22T03:32:49;95305.22;;;0.29
40245;BMP280;25963;42.694;23.600;2024-03-22T03:35:15;95319.63;;;0.41
40245;BMP280;25963;42.694;23.600;2024-03-22T03:37:40;95336.13;;;0.41
40245;BMP280;25963;42.694;23.600;2024-03-22T03:40:06;95349.56;;;0.47
40245;BMP280;25963;42.694;23.600;2024-03-22T03:42:34;95306.78;;;0.23
40245;BMP280;25963;42.694;23.600;2024-03-22T03:44:59;95326.84;;;0.33
40245;BMP280;25963;42.694;23.600;2024-03-22T03:47:24;95350.28;;;0.47
40245;BMP280;25963;42.694;23.600;2024-03-22T03:49:50;95355.91;;;0.49
40245;BMP280;25963;42.694;23.600;2024-03-22T03:52:15;95361.53;;;0.48
40245;BMP280;25963;42.694;23.600;2024-03-22T03:54:40;95355.50;;;0.51
40245;BMP280;25963;42.694;23.600;2024-03-22T03:57:06;95343.28;;;0.41
40245;BMP280;25963;42.694;23.600;2024-03-22T03:59:31;95353.31;;;0.46
40245;BMP280;25963;42.694;23.600;2024-03-22T04:01:57;95341.94;;;0.29
40245;BMP280;25963;42.694;23.600;2024-03-22T04:04:22;95377.41;;;0.41
40245;BMP280;25963;42.694;23.600;2024-03-22T04:06:48;95367.66;;;0.41
40245;BMP280;25963;42.694;23.600;2024-03-22T04:09:13;95322.88;;;-0.02
40245;BMP280;25963;42.694;23.600;2024-03-22T04:11:38;95375.44;;;0.22
40245;BMP280;25963;42.694;23.600;2024-03-22T04:14:04;95380.72;;;0.18
40245;BMP280;25963;42.694;23.600;2024-03-22T04:16:31;95391.91;;;0.22
40245;BMP280;25963;42.694;23.600;2024-03-22T04:18:56;95343.59;;;-0.11
40245;BMP280;25963;42.694;23.600;2024-03-22T04:21:22;95334.56;;;-0.06
40245;BMP280;25963;42.694;23.600;2024-03-22T04:23:47;95315.66;;;-0.24
40245;BMP280;25963;42.694;23.600;2024-03-22T04:26:13;95378.75;;;0.26
40245;BMP280;25963;42.694;23.600;2024-03-22T04:28:38;95336.38;;;-0.03
40245;BMP280;25963;42.694;23.600;2024-03-22T04:31:08;95392.91;;;0.32
40245;BMP280;25963;42.694;23.600;2024-03-22T04:33:34;95397.69;;;0.37
40245;BMP280;25963;42.694;23.600;2024-03-22T04:36:00;95362.38;;;0.15
40245;BMP280;25963;42.694;23.600;2024-03-22T04:38:26;95389.94;;;0.30
40245;BMP280;25963;42.694;23.600;2024-03-22T04:40:52;95396.25;;;0.32
40245;BMP280;25963;42.694;23.600;2024-03-22T04:43:18;95386.56;;;0.29
40245;BMP280;25963;42.694;23.600;2024-03-22T04:45:47;95365.50;;;0.06
40245;BMP280;25963;42.694;23.600;2024-03-22T04:48:14;95371.03;;;0.12
40245;BMP280;25963;42.694;23.600;2024-03-22T04:50:39;95395.47;;;0.35
40245;BMP280;25963;42.694;23.600;2024-03-22T04:53:05;95358.84;;;0.28
40245;BMP280;25963;42.694;23.600;2024-03-22T04:55:31;95374.59;;;0.78
40245;BMP280;25963;42.694;23.600;2024-03-22T04:57:58;95400.25;;;1.40
40245;BMP280;25963;42.694;23.600;2024-03-22T05:00:23;95370.66;;;1.75
40245;BMP280;25963;42.694;23.600;2024-03-22T05:02:50;95398.28;;;2.59
40245;BMP280;25963;42.694;23.600;2024-03-22T05:05:16;95407.81;;;3.17
40245;BMP280;25963;42.694;23.600;2024-03-22T05:07:41;95399.56;;;3.72
40245;BMP280;25963;42.694;23.600;2024-03-22T05:10:07;95393.31;;;4.20
40245;BMP280;25963;42.694;23.600;2024-03-22T05:12:34;95417.41;;;4.85
40245;BMP280;25963;42.694;23.600;2024-03-22T05:14:59;95404.50;;;5.09
40245;BMP280;25963;42.694;23.600;2024-03-22T05:17:25;95417.97;;;5.58
40245;BMP280;25963;42.694;23.600;2024-03-22T05:19:50;95422.94;;;5.99
40245;BMP280;25963;42.694;23.600;2024-03-22T05:22:15;95424.31;;;6.34
40245;BMP280;25963;42.694;23.600;2024-03-22T05:24:41;95425.94;;;6.90
40245;BMP280;25963;42.694;23.600;2024-03-22T05:27:07;95377.59;;;6.95
40245;BMP280;25963;42.694;23.600;2024-03-22T05:29:32;95426.25;;;7.55
40245;BMP280;25963;42.694;23.600;2024-03-22T05:31:58;95423.88;;;8.17
40245;BMP280;25963;42.694;23.600;2024-03-22T05:34:23;95334.22;;;7.94
40245;BMP280;25963;42.694;23.600;2024-03-22T05:36:49;95383.25;;;8.49
40245;BMP280;25963;42.694;23.600;2024-03-22T05:39:14;95439.13;;;8.97
40245;BMP280;25963;42.694;23.600;2024-03-22T05:41:40;95432.31;;;9.19
40245;BMP280;25963;42.694;23.600;2024-03-22T05:44:05;95432.47;;;9.39
40245;BMP280;25963;42.694;23.600;2024-03-22T05:46:31;95397.44;;;9.46
40245;BMP280;25963;42.694;23.600;2024-03-22T05:48:57;95427.31;;;9.80
40245;BMP280;25963;42.694;23.600;2024-03-22T05:51:24;95438.16;;;10.05
40245;BMP280;25963;42.694;23.600;2024-03-22T05:53:49;95390.91;;;10.06
40245;BMP280;25963;42.694;23.600;2024-03-22T05:56:15;95420.88;;;10.50
40245;BMP280;25963;42.694;23.600;2024-03-22T05:58:40;95407.75;;;10.32
40245;BMP280;25963;42.694;23.600;2024-03-22T06:01:06;95452.38;;;10.66
40245;BMP280;25963;42.694;23.600;2024-03-22T06:03:31;95448.13;;;10.74
40245;BMP280;25963;42.694;23.600;2024-03-22T06:05:58;95447.75;;;10.87
40245;BMP280;25963;42.694;23.600;2024-03-22T06:08:28;95433.56;;;10.95
40245;BMP280;25963;42.694;23.600;2024-03-22T06:10:54;95418.22;;;10.90
40245;BMP280;25963;42.694;23.600;2024-03-22T06:13:21;95416.56;;;10.73
40245;BMP280;25963;42.694;23.600;2024-03-22T06:15:48;95451.84;;;11.02
40245;BMP280;25963;42.694;23.600;2024-03-22T06:18:14;95442.31;;;10.96
40245;BMP280;25963;42.694;23.600;2024-03-22T06:20:40;95412.13;;;10.50
40245;BMP280;25963;42.694;23.600;2024-03-22T06:25:31;95448.38;;;10.56
40245;BMP280;25963;42.694;23.600;2024-03-22T06:27:57;95419.31;;;9.80
40245;BMP280;25963;42.694;23.600;2024-03-22T06:30:23;95395.13;;;9.25
40245;BMP280;25963;42.694;23.600;2024-03-22T06:32:48;95388.69;;;9.17
40245;BMP280;25963;42.694;23.600;2024-03-22T06:35:14;95427.50;;;9.47
40245;BMP280;25963;42.694;23.600;2024-03-22T06:37:39;95397.56;;;9.37
40245;BMP280;25963;42.694;23.600;2024-03-22T06:40:06;95408.63;;;9.21
40245;BMP280;25963;42.694;23.600;2024-03-22T06:42:32;95408.66;;;9.36
40245;BMP280;25963;42.694;23.600;2024-03-22T06:44:57;95450.59;;;9.65
40245;BMP280;25963;42.694;23.600;2024-03-22T06:47:23;95402.69;;;9.41
40245;BMP280;25963;42.694;23.600;2024-03-22T06:49:49;95455.09;;;10.02
40245;BMP280;25963;42.694;23.600;2024-03-22T06:52:14;95411.88;;;9.54
40245;BMP280;25963;42.694;23.600;2024-03-22T06:54:40;95418.88;;;9.67
40245;BMP280;25963;42.694;23.600;2024-03-22T06:57:06;95456.28;;;9.87
40245;BMP280;25963;42.694;23.600;2024-03-22T06:59:31;95484.03;;;10.24
40245;BMP280;25963;42.694;23.600;2024-03-22T07:01:57;95471.50;;;10.30
40245;BMP280;25963;42.694;23.600;2024-03-22T07:04:22;95483.22;;;9.89
40245;BMP280;25963;42.694;23.600;2024-03-22T07:06:47;95390.41;;;9.05
40245;BMP280;25963;42.694;23.600;2024-03-22T07:09:13;95460.97;;;9.48
40245;BMP280;25963;42.694;23.600;2024-03-22T07:11:39;95483.22;;;9.74
40245;BMP280;25963;42.694;23.600;2024-03-22T07:14:04;95421.88;;;9.45
40245;BMP280;25963;42.694;23.600;2024-03-22T07:16:30;95476.44;;;10.02
40245;BMP280;25963;42.694;23.600;2024-03-22T07:18:55;95455.47;;;9.95
40245;BMP280;25963;42.694;23.600;2024-03-22T07:21:21;95460.06;;;10.09
40245;BMP280;25963;42.694;23.600;2024-03-22T07:23:46;95493.22;;;10.37
40245;BMP280;25963;42.694;23.600;2024-03-22T07:26:12;95460.00;;;10.38
40245;BMP280;25963;42.694;23.600;2024-03-22T07:28:37;95483.56;;;10.75
40245;BMP280;25963;42.694;23.600;2024-03-22T07:31:02;95487.81;;;10.87
40245;BMP280;25963;42.694;23.600;2024-03-22T07:33:28;95433.03;;;10.71
40245;BMP280;25963;42.694;23.600;2024-03-22T07:35:53;95441.25;;;10.88
40245;BMP280;25963;42.694;23.600;2024-03-22T07:38:21;95477.97;;;11.13
40245;BMP280;25963;42.694;23.600;2024-03-22T07:40:46;95421.34;;;10.69
40245;BMP280;25963;42.694;23.600;2024-03-22T07:43:11;95409.09;;;10.62
40245;BMP280;25963;42.694;23.600;2024-03-22T07:45:38;95484.69;;;11.29
40245;BMP280;25963;42.694;23.600;2024-03-22T07:48:04;95407.94;;;10.83
40245;BMP280;25963;42.694;23.600;2024-03-22T07:50:31;95476.59;;;11.43
40245;BMP280;25963;42.694;23.600;2024-03-22T07:52:56;95401.16;;;11.08
40245;BMP280;25963;42.694;23.600;2024-03-22T07:55:22;95474.69;;;11.75
40245;BMP280;25963;42.694;23.600;2024-03-22T07:57:48;95459.22;;;11.84
40245;BMP280;25963;42.694;23.600;2024-03-22T08:00:13;95443.72;;;11.88
40245;BMP280;25963;42.694;23.600;2024-03-22T08:02:39;95478.72;;;12.22
40245;BMP280;25963;42.694;23.600;2024-03-22T08:05:05;95415.91;;;11.80
40245;BMP280;25963;42.694;23.600;2024-03-22T08:07:31;95477.75;;;12.25
40245;BMP280;25963;42.694;23.600;2024-03-22T08:09:56;95474.47;;;12.35
40245;BMP280;25963;42.694;23.600;2024-03-22T08:12:24;95476.97;;;12.50
40245;BMP280;25963;42.694;23.600;2024-03-22T08:14:49;95481.44;;;12.64
40245;BMP280;25963;42.694;23.600;2024-03-22T08:17:15;95469.00;;;12.61
40245;BMP280;25963;42.694;23.600;2024-03-22T08:19:41;95469.84;;;12.78
40245;BMP280;25963;42.694;23.600;2024-03-22T08:22:06;95445.00;;;12.88
40245;BMP280;25963;42.694;23.600;2024-03-22T08:24:32;95447.53;;;13.03
40245;BMP280;25963;42.694;23.600;2024-03-22T08:26:57;95440.25;;;13.15
40245;BMP280;25963;42.694;23.600;2024-03-22T08:29:22;95444.38;;;13.27
40245;BMP280;25963;42.694;23.600;2024-03-22T08:31:48;95457.59;;;13.41
40245;BMP280;25963;42.694;23.600;2024-03-22T08:34:13;95476.88;;;13.62
40245;BMP280;25963;42.694;23.600;2024-03-22T08:36:39;95423.94;;;13.29
40245;BMP280;25963;42.694;23.600;2024-03-22T08:39:04;95459.09;;;13.59
40245;BMP280;25963;42.694;23.600;2024-03-22T08:41:30;95441.31;;;13.61
40245;BMP280;25963;42.694;23.600;2024-03-22T08:43:56;95472.00;;;13.88
40245;BMP280;25963;42.694;23.600;2024-03-22T08:46:22;95463.47;;;13.78
40245;BMP280;25963;42.694;23.600;2024-03-22T08:48:50;95452.25;;;13.63
40245;BMP280;25963;42.694;23.600;2024-03-22T08:51:15;95463.22;;;13.76
40245;BMP280;25963;42.694;23.600;2024-03-22T08:53:41;95457.63;;;13.97
40245;BMP280;25963;42.694;23.600;2024-03-22T08:56:06;95466.41;;;14.14
40245;BMP280;25963;42.694;23.600;2024-03-22T08:58:33;95428.34;;;13.99
40245;BMP280;25963;42.694;23.600;2024-03-22T09:00:58;95464.38;;;14.42
40245;BMP280;25963;42.694;23.600;2024-03-22T09:03:23;95452.91;;;14.47
40245;BMP280;25963;42.694;23.600;2024-03-22T09:05:52;95456.00;;;14.73
40245;BMP280;25963;42.694;23.600;2024-03-22T09:08:18;95449.38;;;14.85
40245;BMP280;25963;42.694;23.600;2024-03-22T09:10:44;95468.13;;;14.96
40245;BMP280;25963;42.694;23.600;2024-03-22T09:13:10;95448.59;;;14.90
40245;BMP280;25963;42.694;23.600;2024-03-22T09:15:38;95433.25;;;14.79
40245;BMP280;25963;42.694;23.600;2024-03-22T09:18:03;95454.88;;;14.52
40245;BMP280;25963;42.694;23.600;2024-03-22T09:20:29;95456.88;;;14.18
40245;BMP280;25963;42.694;23.600;2024-03-22T09:22:54;95414.69;;;13.85
40245;BMP280;25963;42.694;23.600;2024-03-22T09:25:20;95450.53;;;14.16
40245;BMP280;25963;42.694;23.600;2024-03-22T09:27:46;95390.03;;;13.93
40245;BMP280;25963;42.694;23.600;2024-03-22T09:30:12;95444.44;;;14.15
40245;BMP280;25963;42.694;23.600;2024-03-22T09:32:37;95413.19;;;14.01
40245;BMP280;25963;42.694;23.600;2024-03-22T09:35:03;95403.44;;;14.04
40245;BMP280;25963;42.694;23.600;2024-03-22T09:37:29;95406.13;;;13.87
40245;BMP280;25963;42.694;23.600;2024-03-22T09:39:54;95424.47;;;13.83
40245;BMP280;25963;42.694;23.600;2024-03-22T09:42:22;95435.44;;;13.74
40245;BMP280;25963;42.694;23.600;2024-03-22T09:44:50;95409.31;;;13.74
40245;BMP280;25963;42.694;23.600;2024-03-22T09:47:16;95442.25;;;14.03
40245;BMP280;25963;42.694;23.600;2024-03-22T09:49:42;95367.88;;;13.86
40245;BMP280;25963;42.694;23.600;2024-03-22T09:52:12;95431.16;;;14.45
40245;BMP280;25963;42.694;23.600;2024-03-22T09:54:38;95394.75;;;14.55
40245;BMP280;25963;42.694;23.600;2024-03-22T09:57:04;95379.56;;;14.68
40245;BMP280;25963;42.694;23.600;2024-03-22T09:59:29;95374.88;;;14.80
40245;BMP280;25963;42.694;23.600;2024-03-22T10:01:56;95403.09;;;14.98
40245;BMP280;25963;42.694;23.600;2024-03-22T10:04:22;95367.72;;;14.88
40245;BMP280;25963;42.694;23.600;2024-03-22T10:06:48;95421.72;;;15.31
40245;BMP280;25963;42.694;23.600;2024-03-22T10:09:13;95423.25;;;15.21
40245;BMP280;25963;42.694;23.600;2024-03-22T10:11:39;95400.50;;;15.16
40245;BMP280;25963;42.694;23.600;2024-03-22T10:14:04;95420.84;;;15.12
40245;BMP280;25963;42.694;23.600;2024-03-22T10:16:34;95402.00;;;14.71
40245;BMP280;25963;42.694;23.600;2024-03-22T10:19:00;95404.53;;;14.52
40245;BMP280;25963;42.694;23.600;2024-03-22T10:21:25;95418.38;;;14.73
40245;BMP280;25963;42.694;23.600;2024-03-22T10:23:53;95412.22;;;14.78
40245;BMP280;25963;42.694;23.600;2024-03-22T10:26:18;95411.72;;;14.85
40245;BMP280;25963;42.694;23.600;2024-03-22T10:28:47;95407.84;;;14.80
40245;BMP280;25963;42.694;23.600;2024-03-22T10:31:13;95385.53;;;14.39
40245;BMP280;25963;42.694;23.600;2024-03-22T10:33:40;95362.63;;;14.27
40245;BMP280;25963;42.694;23.600;2024-03-22T10:36:07;95396.72;;;14.54
40245;BMP280;25963;42.694;23.600;2024-03-22T10:38:33;95406.66;;;14.65
40245;BMP280;25963;42.694;23.600;2024-03-22T10:41:01;95370.00;;;13.99
40245;BMP280;25963;42.694;23.600;2024-03-22T10:43:27;95348.78;;;13.96
40245;BMP280;25963;42.694;23.600;2024-03-22T10:45:56;95361.97;;;14.05
40245;BMP280;25963;42.694;23.600;2024-03-22T10:48:28;95335.66;;;13.81
40245;BMP280;25963;42.694;23.600;2024-03-22T10:50:55;95342.72;;;13.84
40245;BMP280;25963;42.694;23.600;2024-03-22T10:53:24;95353.44;;;13.84
40245;BMP280;25963;42.694;23.600;2024-03-22T10:55:50;95399.72;;;14.23
40245;BMP280;25963;42.694;23.600;2024-03-22T10:58:17;95398.31;;;14.17
40245;BMP280;25963;42.694;23.600;2024-03-22T11:00:44;95390.25;;;14.17
40245;BMP280;25963;42.694;23.600;2024-03-22T11:03:09;95324.22;;;13.64
40245;BMP280;25963;42.694;23.600;2024-03-22T11:05:47;95379.28;;;13.87
40245;BMP280;25963;42.694;23.600;2024-03-22T11:08:22;95332.50;;;13.66
40245;BMP280;25963;42.694;23.600;2024-03-22T11:10:48;95352.03;;;13.61
40245;BMP280;25963;42.694;23.600;2024-03-22T11:13:16;95373.94;;;13.70
40245;BMP280;25963;42.694;23.600;2024-03-22T11:15:42;95359.59;;;13.68
40245;BMP280;25963;42.694;23.600;2024-03-22T11:18:07;95311.28;;;13.57
40245;BMP280;25963;42.694;23.600;2024-03-22T11:20:36;95369.28;;;14.10
40245;BMP280;25963;42.694;23.600;2024-03-22T11:23:01;95364.03;;;14.39
40245;BMP280;25963;42.694;23.600;2024-03-22T11:25:28;95305.41;;;14.49
40245;BMP280;25963;42.694;23.600;2024-03-22T11:27:54;95326.69;;;14.82
40245;BMP280;25963;42.694;23.600;2024-03-22T11:30:20;95329.81;;;14.92
40245;BMP280;25963;42.694;23.600;2024-03-22T11:32:46;95359.94;;;15.20
40245;BMP280;25963;42.694;23.600;2024-03-22T11:35:12;95348.09;;;14.99
40245;BMP280;25963;42.694;23.600;2024-03-22T11:37:41;95315.00;;;14.79
40245;BMP280;25963;42.694;23.600;2024-03-22T11:40:09;95346.94;;;15.24
40245;BMP280;25963;42.694;23.600;2024-03-22T11:42:37;95335.09;;;15.38
40245;BMP280;25963;42.694;23.600;2024-03-22T11:45:03;95340.19;;;15.41
40245;BMP280;25963;42.694;23.600;2024-03-22T11:47:29;95337.03;;;15.43
40245;BMP280;25963;42.694;23.600;2024-03-22T11:49:55;95336.84;;;15.35
40245;BMP280;25963;42.694;23.600;2024-03-22T11:52:24;95273.03;;;15.01
40245;BMP280;25963;42.694;23.600;2024-03-22T11:54:51;95259.38;;;14.99
40245;BMP280;25963;42.694;23.600;2024-03-22T11:57:18;95329.34;;;15.52
40245;BMP280;25963;42.694;23.600;2024-03-22T11:59:44;95275.34;;;15.21
40245;BMP280;25963;42.694;23.600;2024-03-22T12:02:10;95268.09;;;15.10
40245;BMP280;25963;42.694;23.600;2024-03-22T12:04:35;95319.75;;;15.57
40245;BMP280;25963;42.694;23.600;2024-03-22T12:07:04;95251.81;;;15.27
40245;BMP280;25963;42.694;23.600;2024-03-22T12:09:29;95268.06;;;15.40
40245;BMP280;25963;42.694;23.600;2024-03-22T12:11:55;95290.28;;;15.70
40245;BMP280;25963;42.694;23.600;2024-03-22T12:14:21;95313.53;;;16.10
40245;BMP280;25963;42.694;23.600;2024-03-22T12:16:46;95261.50;;;16.02
40245;BMP280;25963;42.694;23.600;2024-03-22T12:19:11;95264.19;;;16.39
40245;BMP280;25963;42.694;23.600;2024-03-22T12:21:37;95312.47;;;16.56
40245;BMP280;25963;42.694;23.600;2024-03-22T12:24:02;95284.97;;;16.44
40245;BMP280;25963;42.694;23.600;2024-03-22T12:26:28;95284.63;;;16.66
40245;BMP280;25963;42.694;23.600;2024-03-22T12:28:57;95265.22;;;16.36
40245;BMP280;25963;42.694;23.600;2024-03-22T12:31:22;95262.69;;;16.07
40245;BMP280;25963;42.694;23.600;2024-03-22T12:33:48;95251.88;;;15.88
40245;BMP280;25963;42.694;23.600;2024-03-22T12:36:13;95304.16;;;15.74
40245;BMP280;25963;42.694;23.600;2024-03-22T12:38:38;95292.28;;;15.64
40245;BMP280;25963;42.694;23.600;2024-03-22T12:41:04;95277.47;;;15.76
40245;BMP280;25963;42.694;23.600;2024-03-22T12:43:31;95226.19;;;14.96
40245;BMP280;25963;42.694;23.600;2024-03-22T12:45:56;95255.69;;;15.31
40245;BMP280;25963;42.694;23.600;2024-03-22T12:48:21;95290.53;;;15.66
40245;BMP280;25963;42.694;23.600;2024-03-22T12:50:47;95245.31;;;15.65
40245;BMP280;25963;42.694;23.600;2024-03-22T12:53:12;95261.16;;;16.11
40245;BMP280;25963;42.694;23.600;2024-03-22T12:55:38;95248.75;;;16.21
40245;BMP280;25963;42.694;23.600;2024-03-22T12:58:03;95288.16;;;16.24
40245;BMP280;25963;42.694;23.600;2024-03-22T13:00:30;95285.03;;;16.20
40245;BMP280;25963;42.694;23.600;2024-03-22T13:02:55;95245.84;;;15.82
40245;BMP280;25963;42.694;23.600;2024-03-22T13:05:20;95247.63;;;15.74
40245;BMP280;25963;42.694;23.600;2024-03-22T13:07:46;95281.41;;;15.75
40245;BMP280;25963;42.694;23.600;2024-03-22T13:10:11;95273.84;;;15.92
40245;BMP280;25963;42.694;23.600;2024-03-22T13:12:37;95185.31;;;15.22
40245;BMP280;25963;42.694;23.600;2024-03-22T13:15:03;95266.72;;;15.76
40245;BMP280;25963;42.694;23.600;2024-03-22T13:17:28;95265.47;;;15.77
40245;BMP280;25963;42.694;23.600;2024-03-22T13:19:54;95255.59;;;15.61
40245;BMP280;25963;42.694;23.600;2024-03-22T13:22:19;95268.47;;;15.92
40245;BMP280;25963;42.694;23.600;2024-03-22T13:24:45;95268.41;;;15.98
40245;BMP280;25963;42.694;23.600;2024-03-22T13:27:11;95217.13;;;15.66
40245;BMP280;25963;42.694;23.600;2024-03-22T13:29:38;95278.47;;;16.16
40245;BMP280;25963;42.694;23.600;2024-03-22T13:32:04;95258.31;;;16.22
40245;BMP280;25963;42.694;23.600;2024-03-22T13:34:30;95231.78;;;16.45
40245;BMP280;25963;42.694;23.600;2024-03-22T13:36:56;95263.22;;;16.87
40245;BMP280;25963;42.694;23.600;2024-03-22T13:39:21;95252.91;;;17.04
40245;BMP280;25963;42.694;23.600;2024-03-22T13:41:48;95216.38;;;16.90
40245;BMP280;25963;42.694;23.600;2024-03-22T13:44:14;95248.69;;;17.35
40245;BMP280;25963;42.694;23.600;2024-03-22T13:46:39;95226.66;;;17.31
40245;BMP280;25963;42.694;23.600;2024-03-22T13:49:14;95231.28;;;17.49
40245;BMP280;25963;42.694;23.600;2024-03-22T13:51:42;95204.88;;;17.16
40245;BMP280;25963;42.694;23.600;2024-03-22T13:54:08;95221.06;;;17.42
40245;BMP280;25963;42.694;23.600;2024-03-22T13:56:33;95226.38;;;17.60